createdAt,value
2019-02-18T00:00:03.941Z,70.99
2019-02-18T00:01:03.970Z,71.20
2019-02-18T00:02:03.922Z,70.99
2019-02-18T00:03:03.915Z,71.30
2019-02-18T00:04:03.903Z,71.12
2019-02-18T00:05:03.903Z,71.23
2019-02-18T00:06:03.955Z,71.33
2019-02-18T00:07:13.794Z,71.95
2019-02-18T00:08:04.854Z,71.85
2019-02-18T00:09:03.849Z,71.95
2019-02-18T00:10:03.837Z,71.85
2019-02-18T00:11:03.836Z,71.67
2019-02-18T00:12:03.884Z,71.75
2019-02-18T00:13:03.805Z,71.88
2019-02-18T00:14:03.813Z,72.50
2019-02-18T00:15:03.781Z,72.16
2019-02-18T00:16:03.778Z,72.09
2019-02-18T00:17:03.756Z,72.61
2019-02-18T00:18:03.783Z,72.61
2019-02-18T00:19:03.739Z,72.71
2019-02-18T00:20:03.732Z,72.19
2019-02-18T00:21:03.714Z,72.50
2019-02-18T00:22:03.736Z,72.61
2019-02-18T00:23:03.719Z,72.50
2019-02-18T00:24:03.683Z,72.50
2019-02-18T00:25:03.678Z,72.30
2019-02-18T00:26:03.672Z,72.30
2019-02-18T00:27:03.651Z,72.09
2019-02-18T00:28:03.674Z,72.81
2019-02-18T00:29:03.630Z,72.61
2019-02-18T00:30:03.622Z,72.50
2019-02-18T00:31:03.605Z,72.19
2019-02-18T00:32:03.602Z,72.30
2019-02-18T00:33:03.625Z,72.30
2019-02-18T00:34:03.571Z,72.64
2019-02-18T00:35:03.569Z,72.33
2019-02-18T00:36:03.549Z,72.50
2019-02-18T00:37:03.536Z,72.40
2019-02-18T00:38:03.525Z,72.40
2019-02-18T00:39:03.568Z,72.85
2019-02-18T00:40:03.504Z,72.85
2019-02-18T00:41:03.492Z,72.40
2019-02-18T00:42:03.488Z,72.61
2019-02-18T00:43:03.511Z,73.16
2019-02-18T00:44:03.477Z,72.50
2019-02-18T00:45:03.453Z,72.95
2019-02-18T00:46:03.444Z,72.95
2019-02-18T00:47:03.426Z,72.64
2019-02-18T00:48:03.421Z,72.81
2019-02-18T00:49:03.433Z,73.36
2019-02-18T00:50:03.405Z,73.16
2019-02-18T00:51:03.386Z,72.85
2019-02-18T00:52:03.379Z,72.95
2019-02-18T00:53:04.090Z,72.85
2019-02-18T00:54:03.353Z,72.74
2019-02-18T00:55:03.385Z,72.91
2019-02-18T00:56:03.332Z,73.05
2019-02-18T00:57:03.316Z,72.74
2019-02-18T00:58:03.309Z,72.85
2019-02-18T00:59:03.309Z,72.43
2019-02-18T01:00:03.301Z,72.85
2019-02-18T01:01:03.272Z,72.64
2019-02-18T01:02:03.269Z,72.64
2019-02-18T01:03:03.274Z,72.61
2019-02-18T01:04:03.242Z,72.30
2019-02-18T01:05:03.258Z,72.50
2019-02-18T01:06:03.232Z,72.61
2019-02-18T01:07:03.207Z,72.61
2019-02-18T01:08:03.198Z,72.50
2019-02-18T01:09:03.196Z,71.88
2019-02-18T01:10:03.197Z,71.88
2019-02-18T01:11:03.237Z,72.30
2019-02-18T01:12:03.154Z,71.78
2019-02-18T01:13:03.146Z,71.57
2019-02-18T01:14:03.135Z,72.09
2019-02-18T01:15:03.121Z,71.67
2019-02-18T01:16:03.149Z,71.98
2019-02-18T01:17:03.099Z,72.02
2019-02-18T01:18:03.092Z,71.92
2019-02-18T01:19:03.079Z,71.26
2019-02-18T01:20:03.066Z,71.47
2019-02-18T01:21:03.088Z,70.75
2019-02-18T01:22:03.055Z,70.54
2019-02-18T01:23:03.045Z,71.37
2019-02-18T01:24:03.029Z,71.37
2019-02-18T01:25:03.021Z,70.85
2019-02-18T01:26:03.007Z,70.95
2019-02-18T01:27:03.063Z,70.85
2019-02-18T01:28:02.982Z,70.30
2019-02-18T01:29:02.968Z,71.16
2019-02-18T01:30:02.951Z,70.75
2019-02-18T01:31:02.939Z,70.03
2019-02-18T01:32:02.968Z,70.64
2019-02-18T01:33:02.969Z,70.20
2019-02-18T01:34:02.912Z,70.09
2019-02-18T01:35:02.903Z,69.99
2019-02-18T01:36:02.887Z,70.03
2019-02-18T01:37:02.873Z,70.12
2019-02-18T01:38:02.904Z,70.03
2019-02-18T01:39:02.852Z,70.12
2019-02-18T01:40:02.847Z,70.12
2019-02-18T01:41:02.834Z,70.64
2019-02-18T01:42:02.824Z,69.89
2019-02-18T01:43:02.860Z,70.64
2019-02-18T01:44:02.797Z,70.03
2019-02-18T01:45:02.789Z,69.92
2019-02-18T01:46:02.779Z,69.89
2019-02-18T01:47:02.763Z,70.23
2019-02-18T01:48:02.782Z,69.92
2019-02-18T01:49:02.781Z,70.12
2019-02-18T01:50:02.731Z,70.12
2019-02-18T01:51:02.726Z,69.71
2019-02-18T01:52:02.708Z,70.03
2019-02-18T01:53:02.706Z,70.33
2019-02-18T01:54:02.735Z,69.71
2019-02-18T01:55:02.752Z,69.71
2019-02-18T01:56:02.663Z,69.61
2019-02-18T01:57:02.663Z,69.82
2019-02-18T01:58:02.659Z,69.43
2019-02-18T01:59:02.704Z,70.06
2019-02-18T02:00:02.628Z,69.92
2019-02-18T02:01:02.622Z,69.40
2019-02-18T02:02:02.603Z,69.51
2019-02-18T02:03:02.599Z,69.51
2019-02-18T02:04:02.587Z,69.61
2019-02-18T02:05:02.574Z,69.85
2019-02-18T02:06:02.573Z,69.61
2019-02-18T02:07:02.550Z,69.61
2019-02-18T02:08:02.537Z,69.95
2019-02-18T02:09:02.531Z,70.26
2019-02-18T02:10:02.564Z,69.71
2019-02-18T02:11:02.554Z,69.92
2019-02-18T02:12:02.494Z,69.71
2019-02-18T02:13:02.476Z,69.74
2019-02-18T02:14:02.478Z,70.16
2019-02-18T02:15:02.455Z,69.85
2019-02-18T02:16:02.472Z,69.95
2019-02-18T02:17:02.439Z,69.74
2019-02-18T02:18:02.423Z,70.37
2019-02-18T02:19:02.432Z,70.26
2019-02-18T02:20:02.404Z,70.06
2019-02-18T02:21:02.458Z,70.09
2019-02-18T02:22:02.382Z,70.19
2019-02-18T02:23:02.370Z,70.26
2019-02-18T02:24:02.356Z,70.78
2019-02-18T02:25:02.358Z,70.26
2019-02-18T02:26:02.369Z,70.37
2019-02-18T02:27:02.329Z,69.98
2019-02-18T02:28:02.315Z,70.06
2019-02-18T02:29:02.301Z,70.29
2019-02-18T02:30:02.314Z,70.06
2019-02-18T02:31:02.373Z,70.06
2019-02-18T02:32:02.314Z,70.47
2019-02-18T02:33:02.262Z,69.74
2019-02-18T02:34:02.255Z,70.09
2019-02-18T02:35:02.242Z,70.06
2019-02-18T02:36:02.229Z,70.29
2019-02-18T02:37:02.253Z,70.09
2019-02-18T02:38:07.741Z,70.06
2019-02-18T02:39:03.198Z,70.16
2019-02-18T02:40:02.180Z,70.09
2019-02-18T02:41:02.173Z,69.88
2019-02-18T02:42:02.218Z,69.98
2019-02-18T02:43:02.172Z,69.88
2019-02-18T02:44:02.139Z,69.98
2019-02-18T02:45:02.182Z,70.19
2019-02-18T02:46:02.117Z,69.57
2019-02-18T02:47:02.109Z,70.06
2019-02-18T02:48:02.116Z,70.61
2019-02-18T02:49:02.085Z,70.40
2019-02-18T02:50:02.068Z,70.50
2019-02-18T02:51:02.062Z,70.81
2019-02-18T02:52:02.051Z,71.02
2019-02-18T02:53:02.076Z,71.22
2019-02-18T02:54:02.046Z,71.33
2019-02-18T02:55:02.013Z,71.43
2019-02-18T02:56:02.006Z,71.15
2019-02-18T02:57:01.993Z,70.81
2019-02-18T02:58:01.980Z,71.26
2019-02-18T02:59:02.008Z,71.36
2019-02-18T03:00:01.961Z,71.47
2019-02-18T03:01:01.953Z,71.36
2019-02-18T03:02:01.935Z,71.47
2019-02-18T03:03:01.931Z,71.26
2019-02-18T03:04:01.972Z,71.26
2019-02-18T03:05:01.917Z,71.36
2019-02-18T03:06:01.897Z,71.47
2019-02-18T03:07:01.885Z,71.47
2019-02-18T03:08:01.873Z,71.36
2019-02-18T03:09:01.914Z,72.08
2019-02-18T03:10:01.849Z,71.70
2019-02-18T03:11:01.858Z,71.67
2019-02-18T03:12:01.831Z,71.98
2019-02-18T03:13:01.818Z,72.08
2019-02-18T03:14:01.808Z,72.60
2019-02-18T03:15:01.819Z,72.50
2019-02-18T03:16:01.780Z,72.22
2019-02-18T03:17:01.771Z,72.91
2019-02-18T03:18:01.763Z,72.39
2019-02-18T03:19:01.753Z,71.91
2019-02-18T03:20:01.749Z,72.53
2019-02-18T03:21:01.731Z,72.22
2019-02-18T03:22:01.727Z,72.19
2019-02-18T03:23:01.704Z,72.22
2019-02-18T03:24:01.697Z,72.43
2019-02-18T03:25:01.755Z,72.02
2019-02-18T03:26:01.670Z,72.64
2019-02-18T03:27:01.664Z,72.22
2019-02-18T03:28:01.652Z,72.64
2019-02-18T03:29:01.641Z,72.33
2019-02-18T03:30:01.638Z,72.33
2019-02-18T03:31:01.730Z,72.53
2019-02-18T03:32:01.614Z,72.33
2019-02-18T03:33:01.604Z,72.12
2019-02-18T03:34:01.584Z,72.12
2019-02-18T03:35:01.586Z,72.02
2019-02-18T03:36:01.601Z,71.70
2019-02-18T03:37:01.690Z,71.91
2019-02-18T03:38:01.539Z,72.02
2019-02-18T03:39:01.539Z,72.12
2019-02-18T03:40:01.519Z,72.22
2019-02-18T03:41:03.383Z,71.91
2019-02-18T03:42:01.576Z,72.12
2019-02-18T03:43:01.483Z,71.91
2019-02-18T03:44:01.499Z,72.22
2019-02-18T03:45:01.468Z,71.39
2019-02-18T03:46:01.467Z,71.29
2019-02-18T03:47:01.445Z,71.91
2019-02-18T03:48:01.433Z,71.39
2019-02-18T03:49:01.416Z,71.29
2019-02-18T03:50:01.409Z,71.50
2019-02-18T03:51:01.436Z,71.81
2019-02-18T03:52:01.388Z,71.91
2019-02-18T03:53:01.375Z,72.02
2019-02-18T03:54:01.365Z,72.25
2019-02-18T03:55:01.356Z,71.70
2019-02-18T03:56:01.370Z,72.22
2019-02-18T03:57:01.338Z,72.12
2019-02-18T03:58:01.329Z,72.25
2019-02-18T03:59:01.304Z,72.05
2019-02-18T04:00:01.300Z,71.73
2019-02-18T04:01:01.289Z,71.53
2019-02-18T04:02:01.325Z,72.05
2019-02-18T04:03:01.266Z,71.94
2019-02-18T04:04:01.257Z,71.94
2019-02-18T04:05:01.245Z,72.02
2019-02-18T04:06:01.232Z,72.25
2019-02-18T04:07:01.253Z,71.73
2019-02-18T04:08:01.250Z,72.05
2019-02-18T04:09:01.237Z,71.73
2019-02-18T04:10:01.208Z,71.84
2019-02-18T04:11:01.177Z,71.94
2019-02-18T04:12:01.167Z,71.84
2019-02-18T04:13:01.153Z,72.36
2019-02-18T04:14:01.189Z,72.36
2019-02-18T04:15:01.134Z,72.08
2019-02-18T04:16:01.119Z,72.77
2019-02-18T04:17:01.135Z,72.81
2019-02-18T04:18:01.100Z,72.77
2019-02-18T04:19:01.107Z,73.43
2019-02-18T04:20:01.092Z,73.01
2019-02-18T04:21:01.062Z,73.11
2019-02-18T04:22:01.053Z,73.08
2019-02-18T04:23:01.055Z,72.81
2019-02-18T04:24:01.055Z,72.60
2019-02-18T04:25:01.027Z,72.81
2019-02-18T04:26:01.029Z,73.19
2019-02-18T04:27:01.005Z,73.11
2019-02-18T04:28:01.063Z,73.43
2019-02-18T04:29:00.979Z,73.53
2019-02-18T04:30:00.975Z,73.22
2019-02-18T04:31:00.959Z,72.84
2019-02-18T04:32:00.946Z,72.81
2019-02-18T04:33:00.935Z,72.94
2019-02-18T04:34:00.949Z,72.91
2019-02-18T04:35:00.947Z,72.84
2019-02-18T04:36:00.936Z,73.25
2019-02-18T04:37:00.891Z,73.11
2019-02-18T04:38:00.879Z,73.22
2019-02-18T04:39:00.871Z,73.15
2019-02-18T04:40:00.865Z,73.01
2019-02-18T04:41:00.892Z,72.91
2019-02-18T04:42:00.838Z,73.11
2019-02-18T04:43:00.828Z,73.46
2019-02-18T04:44:00.810Z,73.36
2019-02-18T04:45:00.801Z,73.46
2019-02-18T04:46:00.813Z,73.22
2019-02-18T04:47:00.805Z,73.05
2019-02-18T04:48:00.776Z,73.57
2019-02-18T04:49:00.756Z,73.67
2019-02-18T04:50:00.745Z,74.29
2019-02-18T04:51:00.747Z,73.25
2019-02-18T04:52:00.752Z,73.15
2019-02-18T04:53:00.724Z,73.36
2019-02-18T04:54:00.712Z,73.88
2019-02-18T04:55:00.699Z,73.57
2019-02-18T04:56:00.684Z,73.67
2019-02-18T04:57:00.721Z,74.19
2019-02-18T04:58:00.708Z,74.29
2019-02-18T04:59:00.651Z,74.08
2019-02-18T05:00:00.644Z,74.40
2019-02-18T05:01:02.911Z,74.19
2019-02-18T05:02:00.665Z,74.50
2019-02-18T05:03:00.623Z,74.29
2019-02-18T05:04:00.603Z,74.53
2019-02-18T05:05:00.589Z,74.29
2019-02-18T05:06:00.577Z,74.84
2019-02-18T05:07:00.572Z,74.43
2019-02-18T05:08:00.589Z,74.84
2019-02-18T05:09:05.211Z,74.53
2019-02-18T05:10:00.533Z,74.53
2019-02-18T05:11:00.525Z,74.43
2019-02-18T05:12:00.506Z,74.32
2019-02-18T05:13:00.513Z,74.53
2019-02-18T05:14:00.524Z,74.43
2019-02-18T05:15:00.481Z,74.32
2019-02-18T05:16:00.536Z,74.43
2019-02-18T05:17:00.463Z,74.43
2019-02-18T05:18:00.494Z,74.43
2019-02-18T05:19:00.475Z,74.63
2019-02-18T05:20:00.444Z,74.74
2019-02-18T05:21:00.418Z,74.53
2019-02-18T05:22:00.405Z,75.26
2019-02-18T05:23:00.401Z,74.84
2019-02-18T05:24:00.377Z,74.63
2019-02-18T05:25:00.422Z,74.84
2019-02-18T05:26:00.368Z,74.63
2019-02-18T05:27:00.362Z,75.26
2019-02-18T05:28:00.344Z,74.43
2019-02-18T05:29:00.373Z,74.43
2019-02-18T05:30:00.623Z,74.53
2019-02-18T05:31:00.302Z,74.63
2019-02-18T05:32:00.299Z,74.74
2019-02-18T05:33:00.287Z,75.29
2019-02-18T05:34:00.274Z,74.88
2019-02-18T05:35:00.448Z,74.88
2019-02-18T05:36:00.276Z,74.77
2019-02-18T05:37:00.238Z,74.77
2019-02-18T05:38:00.227Z,74.88
2019-02-18T05:39:00.294Z,75.40
2019-02-18T05:40:00.345Z,75.40
2019-02-18T05:41:00.196Z,75.50
2019-02-18T05:42:00.205Z,75.29
2019-02-18T05:43:00.177Z,75.60
2019-02-18T05:44:00.167Z,75.60
2019-02-18T05:45:00.359Z,75.50
2019-02-18T05:46:00.195Z,75.71
2019-02-18T05:47:00.136Z,75.92
2019-02-18T05:48:00.124Z,76.02
2019-02-18T05:49:00.115Z,76.02
2019-02-18T05:50:00.437Z,75.71
2019-02-18T05:51:00.123Z,75.50
2019-02-18T05:52:00.082Z,75.60
2019-02-18T05:53:00.076Z,75.50
2019-02-18T05:54:00.058Z,75.50
2019-02-18T05:55:00.143Z,76.12
2019-02-18T05:56:00.089Z,76.02
2019-02-18T05:57:00.026Z,75.81
2019-02-18T05:58:00.017Z,76.02
2019-02-18T05:58:59.999Z,75.85
2019-02-18T05:59:59.987Z,75.81
2019-02-18T06:00:59.985Z,75.71
2019-02-18T06:02:00.026Z,75.81
2019-02-18T06:02:59.961Z,75.71
2019-02-18T06:04:00.315Z,76.16
2019-02-18T06:04:59.934Z,76.02
2019-02-18T06:05:59.938Z,76.06
2019-02-18T06:06:59.913Z,76.06
2019-02-18T06:07:59.941Z,75.92
2019-02-18T06:08:59.894Z,75.71
2019-02-18T06:09:59.880Z,75.95
2019-02-18T06:10:59.875Z,75.95
2019-02-18T06:11:59.862Z,75.85
2019-02-18T06:12:59.846Z,75.95
2019-02-18T06:13:59.878Z,75.81
2019-02-18T06:14:59.830Z,75.95
2019-02-18T06:15:59.841Z,75.95
2019-02-18T06:16:59.802Z,75.64
2019-02-18T06:17:59.833Z,76.57
2019-02-18T06:18:59.788Z,76.89
2019-02-18T06:19:59.777Z,77.40
2019-02-18T06:20:59.764Z,77.30
2019-02-18T06:21:59.758Z,76.54
2019-02-18T06:22:59.815Z,76.26
2019-02-18T06:23:59.732Z,76.78
2019-02-18T06:24:59.719Z,75.50
2019-02-18T06:25:59.714Z,75.54
2019-02-18T06:26:59.696Z,76.26
2019-02-18T06:27:59.698Z,76.78
2019-02-18T06:28:59.730Z,76.78
2019-02-18T06:29:59.666Z,76.16
2019-02-18T06:30:59.653Z,75.95
2019-02-18T06:31:59.644Z,75.85
2019-02-18T06:33:01.154Z,76.06
2019-02-18T06:33:59.663Z,75.85
2019-02-18T06:34:59.621Z,75.54
2019-02-18T06:35:59.598Z,75.54
2019-02-18T06:36:59.593Z,75.74
2019-02-18T06:37:59.577Z,75.64
2019-02-18T06:38:59.567Z,76.16
2019-02-18T06:39:59.556Z,75.74
2019-02-18T06:40:59.585Z,75.95
2019-02-18T06:41:59.534Z,76.12
2019-02-18T06:42:59.524Z,75.71
2019-02-18T06:43:59.512Z,75.74
2019-02-18T06:44:59.554Z,75.85
2019-02-18T06:45:59.489Z,76.02
2019-02-18T06:46:59.483Z,75.95
2019-02-18T06:47:59.483Z,75.74
2019-02-18T06:48:59.462Z,75.85
2019-02-18T06:49:59.452Z,75.81
2019-02-18T06:50:59.464Z,75.95
2019-02-18T06:51:59.433Z,75.92
2019-02-18T06:52:59.439Z,75.71
2019-02-18T06:53:59.409Z,75.92
2019-02-18T06:54:59.393Z,75.71
2019-02-18T06:55:59.420Z,76.12
2019-02-18T06:56:59.371Z,75.92
2019-02-18T06:57:59.360Z,75.50
2019-02-18T06:58:59.353Z,75.50
2019-02-18T06:59:59.345Z,75.81
2019-02-18T07:00:59.343Z,75.50
2019-02-18T07:01:59.319Z,75.92
2019-02-18T07:02:59.306Z,76.02
2019-02-18T07:03:59.310Z,75.71
2019-02-18T07:04:59.286Z,75.60
2019-02-18T07:05:59.280Z,75.19
2019-02-18T07:06:59.305Z,75.40
2019-02-18T07:07:59.256Z,75.19
2019-02-18T07:08:59.242Z,74.98
2019-02-18T07:09:59.236Z,74.67
2019-02-18T07:10:59.247Z,74.67
2019-02-18T07:11:59.213Z,74.77
2019-02-18T07:12:59.238Z,74.88
2019-02-18T07:13:59.193Z,74.74
2019-02-18T07:14:59.182Z,75.05
2019-02-18T07:15:59.179Z,75.46
2019-02-18T07:16:59.156Z,75.26
2019-02-18T07:17:59.165Z,74.95
2019-02-18T07:18:59.138Z,74.43
2019-02-18T07:19:59.132Z,74.53
2019-02-18T07:20:59.112Z,75.26
2019-02-18T07:21:59.103Z,73.80
2019-02-18T07:22:59.095Z,74.74
2019-02-18T07:23:59.105Z,74.32
2019-02-18T07:24:59.073Z,74.53
2019-02-18T07:26:00.068Z,74.84
2019-02-18T07:26:59.051Z,74.50
2019-02-18T07:27:59.100Z,74.22
2019-02-18T07:28:59.039Z,73.57
2019-02-18T07:29:59.021Z,73.67
2019-02-18T07:30:59.023Z,73.77
2019-02-18T07:31:58.994Z,74.08
2019-02-18T07:32:59.000Z,74.08
2019-02-18T07:33:59.003Z,74.40
2019-02-18T07:34:58.962Z,73.25
2019-02-18T07:35:58.957Z,73.15
2019-02-18T07:36:58.941Z,73.46
2019-02-18T07:37:58.936Z,73.46
2019-02-18T07:38:58.927Z,73.57
2019-02-18T07:40:01.768Z,73.36
2019-02-18T07:40:58.901Z,73.57
2019-02-18T07:41:58.886Z,72.94
2019-02-18T07:42:58.883Z,72.94
2019-02-18T07:43:58.865Z,73.05
2019-02-18T07:44:58.861Z,72.94
2019-02-18T07:45:58.851Z,73.05
2019-02-18T07:46:58.839Z,72.74
2019-02-18T07:47:58.834Z,72.53
2019-02-18T07:48:58.815Z,72.63
2019-02-18T07:49:58.805Z,72.42
2019-02-18T07:50:58.803Z,73.05
2019-02-18T07:51:58.780Z,73.05
2019-02-18T07:52:58.818Z,72.50
2019-02-18T07:53:58.763Z,72.71
2019-02-18T07:54:58.745Z,72.39
2019-02-18T07:55:58.732Z,72.60
2019-02-18T07:56:58.728Z,72.94
2019-02-18T07:57:58.710Z,72.39
2019-02-18T07:58:58.742Z,72.19
2019-02-18T07:59:58.693Z,72.19
2019-02-18T08:00:58.682Z,71.46
2019-02-18T08:01:58.695Z,71.36
2019-02-18T08:02:58.662Z,71.36
2019-02-18T08:03:58.649Z,71.46
2019-02-18T08:04:58.638Z,71.36
2019-02-18T08:05:58.629Z,71.33
2019-02-18T08:06:58.644Z,71.33
2019-02-18T08:07:58.605Z,71.43
2019-02-18T08:08:58.594Z,71.12
2019-02-18T08:09:58.581Z,70.77
2019-02-18T08:10:58.567Z,70.39
2019-02-18T08:11:58.562Z,69.95
2019-02-18T08:12:58.561Z,70.47
2019-02-18T08:13:58.539Z,70.67
2019-02-18T08:14:58.527Z,70.36
2019-02-18T08:15:58.511Z,70.26
2019-02-18T08:16:58.511Z,70.32
2019-02-18T08:17:58.500Z,70.26
2019-02-18T08:18:58.483Z,69.50
2019-02-18T08:19:58.474Z,68.77
2019-02-18T08:20:58.476Z,68.98
2019-02-18T08:21:58.519Z,69.19
2019-02-18T08:22:58.462Z,68.67
2019-02-18T08:24:00.293Z,68.98
2019-02-18T08:24:58.417Z,68.54
2019-02-18T08:25:58.407Z,68.54
2019-02-18T08:26:58.390Z,67.91
2019-02-18T08:27:58.380Z,68.33
2019-02-18T08:28:58.421Z,68.43
2019-02-18T08:29:58.358Z,68.40
2019-02-18T08:30:58.351Z,68.09
2019-02-18T08:31:58.339Z,67.88
2019-02-18T08:32:58.329Z,67.78
2019-02-18T08:33:58.314Z,68.19
2019-02-18T08:34:58.347Z,67.68
2019-02-18T08:35:58.307Z,67.68
2019-02-18T08:36:58.288Z,67.58
2019-02-18T08:37:58.275Z,67.68
2019-02-18T08:38:58.302Z,67.06
2019-02-18T08:39:58.270Z,67.75
2019-02-18T08:40:58.277Z,67.85
2019-02-18T08:41:58.236Z,67.85
2019-02-18T08:42:58.264Z,67.72
2019-02-18T08:43:58.210Z,66.27
2019-02-18T08:44:58.220Z,66.38
2019-02-18T08:45:58.259Z,68.51
2019-02-18T08:46:58.176Z,66.35
2019-02-18T08:47:58.169Z,68.07
2019-02-18T08:48:58.156Z,66.01
2019-02-18T08:49:58.148Z,65.25
2019-02-18T08:50:58.134Z,64.64
2019-02-18T08:51:58.137Z,64.27
2019-02-18T08:52:58.113Z,63.13
2019-02-18T08:53:58.105Z,61.77
2019-02-18T08:54:58.084Z,61.02
2019-02-18T08:55:58.079Z,59.86
2019-02-18T08:56:58.101Z,59.73
2019-02-18T08:57:58.056Z,59.80
2019-02-18T08:58:58.087Z,58.95
2019-02-18T08:59:58.034Z,58.64
2019-02-18T09:01:02.637Z,57.62
2019-02-18T09:01:58.009Z,56.74
2019-02-18T09:02:58.003Z,55.62
2019-02-18T09:03:57.986Z,55.79
2019-02-18T09:04:57.976Z,54.44
2019-02-18T09:05:57.964Z,54.00
2019-02-18T09:06:58.031Z,53.49
2019-02-18T09:07:57.948Z,53.26
2019-02-18T09:08:57.930Z,52.95
2019-02-18T09:09:57.921Z,52.44
2019-02-18T09:10:57.919Z,52.21
2019-02-18T09:11:57.901Z,51.37
2019-02-18T09:12:57.909Z,51.57
2019-02-18T09:13:57.877Z,51.14
2019-02-18T09:14:57.876Z,50.32
2019-02-18T09:16:00.389Z,50.20
2019-02-18T09:16:57.844Z,49.96
2019-02-18T09:17:57.874Z,49.15
2019-02-18T09:18:57.859Z,48.82
2019-02-18T09:19:57.810Z,48.59
2019-02-18T09:20:57.808Z,47.37
2019-02-18T09:21:57.794Z,46.96
2019-02-18T09:22:57.815Z,47.34
2019-02-18T09:23:57.765Z,46.83
2019-02-18T09:24:57.766Z,46.00
2019-02-18T09:25:57.746Z,46.41
2019-02-18T09:26:57.740Z,45.98
2019-02-18T09:27:57.728Z,44.55
2019-02-18T09:28:57.732Z,45.04
2019-02-18T09:29:57.740Z,44.93
2019-02-18T09:30:57.696Z,44.63
2019-02-18T09:31:57.681Z,44.71
2019-02-18T09:32:57.743Z,44.20
2019-02-18T09:33:57.663Z,44.08
2019-02-18T09:35:02.021Z,43.87
2019-02-18T09:35:57.662Z,44.67
2019-02-18T09:36:57.629Z,43.75
2019-02-18T09:37:57.619Z,43.75
2019-02-18T09:38:57.610Z,43.32
2019-02-18T09:39:57.593Z,41.80
2019-02-18T09:40:57.620Z,42.39
2019-02-18T09:41:57.577Z,42.39
2019-02-18T09:42:57.559Z,42.39
2019-02-18T09:43:57.547Z,40.77
2019-02-18T09:44:57.541Z,41.56
2019-02-18T09:45:57.563Z,40.64
2019-02-18T09:46:57.591Z,40.72
2019-02-18T09:47:57.521Z,40.70
2019-02-18T09:48:57.495Z,39.89
2019-02-18T09:49:57.483Z,39.69
2019-02-18T09:50:59.903Z,40.09
2019-02-18T09:51:57.546Z,39.18
2019-02-18T09:52:57.450Z,39.06
2019-02-18T09:53:57.437Z,39.15
2019-02-18T09:54:57.429Z,38.84
2019-02-18T09:55:57.426Z,38.93
2019-02-18T09:56:57.407Z,38.12
2019-02-18T09:57:57.424Z,38.10
2019-02-18T09:58:57.393Z,37.47
2019-02-18T09:59:57.378Z,37.57
2019-02-18T10:00:57.391Z,37.88
2019-02-18T10:01:57.351Z,36.54
2019-02-18T10:02:57.560Z,37.05
2019-02-18T10:03:57.336Z,37.27
2019-02-18T10:04:57.325Z,37.76
2019-02-18T10:05:57.309Z,36.85
2019-02-18T10:06:57.297Z,36.52
2019-02-18T10:07:57.361Z,36.32
2019-02-18T10:08:57.275Z,36.22
2019-02-18T10:09:57.274Z,36.43
2019-02-18T10:10:57.258Z,35.82
2019-02-18T10:11:57.247Z,36.34
2019-02-18T10:12:59.578Z,37.13
2019-02-18T10:13:57.265Z,36.44
2019-02-18T10:14:57.211Z,36.63
2019-02-18T10:15:57.201Z,36.02
2019-02-18T10:16:57.189Z,35.30
2019-02-18T10:17:57.181Z,35.68
2019-02-18T10:18:57.164Z,35.28
2019-02-18T10:19:57.195Z,35.16
2019-02-18T10:20:57.218Z,34.86
2019-02-18T10:21:57.137Z,34.55
2019-02-18T10:22:57.122Z,35.38
2019-02-18T10:23:57.109Z,34.67
2019-02-18T10:24:57.100Z,35.36
2019-02-18T10:25:57.097Z,34.75
2019-02-18T10:26:57.136Z,34.95
2019-02-18T10:27:57.071Z,34.95
2019-02-18T10:28:57.054Z,34.94
2019-02-18T10:29:57.045Z,34.64
2019-02-18T10:30:57.110Z,34.82
2019-02-18T10:31:57.028Z,34.41
2019-02-18T10:32:57.020Z,33.70
2019-02-18T10:33:57.010Z,33.50
2019-02-18T10:34:56.992Z,33.39
2019-02-18T10:35:56.986Z,33.88
2019-02-18T10:36:57.046Z,32.96
2019-02-18T10:37:56.964Z,32.44
2019-02-18T10:38:56.987Z,32.24
2019-02-18T10:39:56.941Z,32.26
2019-02-18T10:41:06.469Z,32.14
2019-02-18T10:41:57.941Z,32.01
2019-02-18T10:42:56.904Z,31.39
2019-02-18T10:43:56.898Z,30.97
2019-02-18T10:44:56.884Z,30.47
2019-02-18T10:45:56.874Z,30.26
2019-02-18T10:46:56.865Z,30.54
2019-02-18T10:47:56.887Z,30.02
2019-02-18T10:48:56.841Z,29.62
2019-02-18T10:49:56.829Z,29.11
2019-02-18T10:50:56.815Z,28.91
2019-02-18T10:51:56.811Z,27.69
2019-02-18T10:52:56.849Z,27.58
2019-02-18T10:53:56.789Z,27.46
2019-02-18T10:54:56.779Z,27.16
2019-02-18T10:55:56.761Z,27.26
2019-02-18T10:56:56.751Z,28.08
2019-02-18T10:57:56.746Z,27.47
2019-02-18T10:58:56.744Z,27.97
2019-02-18T10:59:59.134Z,27.37
2019-02-18T11:00:56.714Z,27.78
2019-02-18T11:01:56.697Z,27.26
2019-02-18T11:02:56.713Z,27.37
2019-02-18T11:03:56.682Z,27.06
2019-02-18T11:04:56.664Z,27.76
2019-02-18T11:05:56.661Z,26.45
2019-02-18T11:06:56.653Z,26.33
2019-02-18T11:07:56.708Z,27.25
2019-02-18T11:08:56.629Z,27.35
2019-02-18T11:09:56.616Z,26.82
2019-02-18T11:10:56.610Z,25.91
2019-02-18T11:11:56.596Z,25.18
2019-02-18T11:12:56.584Z,25.37
2019-02-18T11:13:56.608Z,25.37
2019-02-18T11:14:56.563Z,25.77
2019-02-18T11:15:56.548Z,25.47
2019-02-18T11:16:56.544Z,25.76
2019-02-18T11:17:56.540Z,25.26
2019-02-18T11:18:56.590Z,25.45
2019-02-18T11:19:56.502Z,25.16
2019-02-18T11:20:56.498Z,24.98
2019-02-18T11:21:56.490Z,25.68
2019-02-18T11:22:56.480Z,25.99
2019-02-18T11:23:56.458Z,25.81
2019-02-18T11:24:56.477Z,25.71
2019-02-18T11:25:56.442Z,25.92
2019-02-18T11:26:56.430Z,26.82
2019-02-18T11:27:56.448Z,26.71
2019-02-18T11:28:56.409Z,25.91
2019-02-18T11:29:56.428Z,25.99
2019-02-18T11:30:56.390Z,25.67
2019-02-18T11:31:56.377Z,24.36
2019-02-18T11:32:56.366Z,24.24
2019-02-18T11:33:56.349Z,24.85
2019-02-18T11:34:56.415Z,24.67
2019-02-18T11:35:56.334Z,25.89
2019-02-18T11:36:56.323Z,25.18
2019-02-18T11:37:56.310Z,26.08
2019-02-18T11:38:56.301Z,25.48
2019-02-18T11:39:56.286Z,25.09
2019-02-18T11:40:56.314Z,25.78
2019-02-18T11:41:56.275Z,25.81
2019-02-18T11:42:56.260Z,25.81
2019-02-18T11:43:56.247Z,26.18
2019-02-18T11:44:56.238Z,25.77
2019-02-18T11:45:56.264Z,24.45
2019-02-18T11:46:56.235Z,24.75
2019-02-18T11:47:56.200Z,25.05
2019-02-18T11:48:56.191Z,24.65
2019-02-18T11:49:56.184Z,25.13
2019-02-18T11:50:56.175Z,24.24
2019-02-18T11:51:56.197Z,24.14
2019-02-18T11:52:56.155Z,24.02
2019-02-18T11:53:56.138Z,23.12
2019-02-18T11:54:56.130Z,24.22
2019-02-18T11:55:56.118Z,24.22
2019-02-18T11:56:56.180Z,24.84
2019-02-18T11:57:56.120Z,24.33
2019-02-18T11:58:56.084Z,25.45
2019-02-18T11:59:56.078Z,25.87
2019-02-18T12:00:56.073Z,25.97
2019-02-18T12:01:56.056Z,25.16
2019-02-18T12:03:02.780Z,25.35
2019-02-18T12:03:57.039Z,24.63
2019-02-18T12:04:56.019Z,24.73
2019-02-18T12:05:56.014Z,24.02
2019-02-18T12:06:56.005Z,23.61
2019-02-18T12:07:56.063Z,24.01
2019-02-18T12:08:55.986Z,23.43
2019-02-18T12:09:55.968Z,24.44
2019-02-18T12:10:55.958Z,24.85
2019-02-18T12:11:55.950Z,25.24
2019-02-18T12:12:56.073Z,24.45
2019-02-18T12:13:55.936Z,25.05
2019-02-18T12:14:55.918Z,24.15
2019-02-18T12:15:55.908Z,24.35
2019-02-18T12:16:55.897Z,24.86
2019-02-18T12:17:55.888Z,25.07
2019-02-18T12:18:55.896Z,25.47
2019-02-18T12:19:55.937Z,25.17
2019-02-18T12:20:55.849Z,24.79
2019-02-18T12:21:55.843Z,24.98
2019-02-18T12:22:55.838Z,24.38
2019-02-18T12:23:55.823Z,24.38
2019-02-18T12:24:55.809Z,25.09
2019-02-18T12:25:55.835Z,24.79
2019-02-18T12:26:55.802Z,25.31
2019-02-18T12:27:55.781Z,24.82
2019-02-18T12:28:55.775Z,25.03
2019-02-18T12:29:55.795Z,25.95
2019-02-18T12:30:55.743Z,26.15
2019-02-18T12:31:55.737Z,26.35
2019-02-18T12:32:55.741Z,26.68
2019-02-18T12:33:55.717Z,27.59
2019-02-18T12:34:55.783Z,27.39
2019-02-18T12:35:55.690Z,27.50
2019-02-18T12:36:55.702Z,29.02
2019-02-18T12:37:55.818Z,28.72
2019-02-18T12:38:55.658Z,28.41
2019-02-18T12:39:55.684Z,28.20
2019-02-18T12:40:55.711Z,28.11
2019-02-18T12:41:55.628Z,28.42
2019-02-18T12:42:55.617Z,27.91
2019-02-18T12:43:55.610Z,27.30
2019-02-18T12:44:55.633Z,27.29
2019-02-18T12:45:55.613Z,27.48
2019-02-18T12:46:55.574Z,27.36
2019-02-18T12:47:55.559Z,26.45
2019-02-18T12:48:55.554Z,26.75
2019-02-18T12:49:55.571Z,26.75
2019-02-18T12:50:55.553Z,27.06
2019-02-18T12:51:55.605Z,27.06